Date,TemperatureHighF,TemperatureAvgF,TemperatureLowF,DewpointHighF,DewpointAvgF,DewpointLowF,HumidityHigh,HumidityAvg,HumidityLow,PressureMaxIn,PressureMinIn,WindSpeedMaxMPH,WindSpeedAvgMPH,GustSpeedMaxMPH,PrecipitationSumIn
2013-1-1,31.5,26.8,15.9,30.0,22.4,10.5,95,84,68,30.09,29.98,11,2,11,0.00
2013-1-2,24.4,17.5,12.8,13.5,10.9,8.7,86,76,54,30.19,30.07,12,1,12,0.03
2013-1-3,30.7,20.7,10.4,20.6,13.0,6.5,86,73,49,30.22,30.12,18,4,20,0.00
2013-1-4,31.3,27.4,24.4,20.8,17.8,14.9,77,67,57,30.24,30.18,26,8,28,0.00
2013-1-5,37.2,29.0,19.4,25.5,20.6,15.3,88,71,56,30.32,30.11,15,2,15,0.11
2013-1-6,36.5,33.3,26.6,31.7,26.7,22.0,89,77,66,30.25,29.97,20,5,22,0.06
2013-1-7,34.4,28.5,26.6,23.7,22.9,21.8,86,79,61,30.37,30.22,10,2,10,0.03
2013-1-8,44.5,33.2,23.8,29.8,25.0,19.8,87,72,54,30.30,30.20,10,2,11,0.00
2013-1-9,47.7,41.1,35.9,38.1,31.1,24.4,89,68,54,30.46,30.17,18,4,19,0.08
2013-1-10,39.9,35.3,28.8,30.5,28.2,25.6,92,76,62,30.53,30.16,16,4,18,0.00
2013-1-11,58.0,49.4,39.8,52.7,43.5,28.2,94,81,62,30.16,29.89,17,4,24,0.40
2013-1-12,62.3,56.9,49.1,59.3,53.9,47.0,97,90,75,30.04,29.87,14,3,14,0.01
2013-1-13,63.9,58.3,39.1,59.2,53.9,37.2,95,86,72,30.02,29.78,25,6,28,0.31
2013-1-14,39.1,30.1,25.3,37.0,24.3,20.3,93,79,69,30.36,30.02,15,4,18,0.00
2013-1-15,31.5,28.3,23.5,22.1,20.5,18.6,85,72,62,30.34,30.05,12,4,13,0.00
2013-1-16,34.9,31.1,29.7,27.3,24.0,21.5,85,75,62,30.05,29.90,13,3,16,0.00
2013-1-17,35.6,32.3,25.0,28.0,24.8,15.9,84,74,62,30.25,30.01,12,1,17,0.00
2013-1-18,33.1,25.4,15.9,20.4,13.8,6.9,74,62,47,30.46,30.17,0,0,0,0.00
2013-1-19,52.3,43.7,32.8,27.1,21.7,17.5,59,42,27,30.17,29.82,26,3,33,0.00
2013-1-20,45.1,31.0,22.7,31.5,17.3,11.2,66,57,42,30.15,29.80,27,8,30,0.00
2013-1-21,22.7,18.1,9.0,16.8,9.4,-2.8,85,69,46,30.12,29.95,29,6,31,0.00
2013-1-22,13.5,8.6,5.0,0.1,-3.4,-5.6,64,58,46,30.26,30.11,20,6,21,0.00
2013-1-23,19.2,12.7,5.8,12.2,1.8,-3.8,86,62,40,30.26,30.02,14,3,15,0.00
2013-1-24,21.4,16.1,12.3,13.0,6.5,0.9,87,67,42,30.48,30.02,13,2,14,0.00
2013-1-25,20.0,16.7,13.8,17.0,10.4,2.7,89,76,59,30.43,29.98,16,3,17,0.00
2013-1-26,26.6,23.2,18.6,22.0,18.1,10.6,91,81,64,30.39,30.05,13,3,13,0.00
2013-1-27,32.1,29.4,18.8,26.4,17.9,11.1,84,62,54,30.44,30.21,14,4,14,0.01
2013-1-28,49.5,41.8,30.6,49.2,40.2,26.1,99,94,84,30.21,29.98,22,5,22,0.38
2013-1-29,66.9,57.0,49.4,54.8,51.5,49.2,100,84,62,30.04,29.69,20,4,21,0.02
2013-1-30,64.2,55.2,32.7,56.2,49.0,30.4,94,80,66,29.69,29.25,30,7,33,0.42
2013-1-31,32.9,24.5,17.8,30.4,18.1,9.1,91,77,56,29.87,29.40,36,10,36,0.00
2013-2-1,17.8,11.5,7.4,14.0,3.2,-0.7,87,69,57,30.30,29.87,19,6,24,0.00
2013-2-2,24.2,17.4,7.6,22.2,13.2,1.6,92,83,75,30.27,29.94,17,2,18,0.00
2013-2-3,23.9,19.8,16.5,21.7,14.9,8.7,91,81,67,30.03,29.86,18,4,19,0.00
2013-2-4,27.6,21.2,14.1,26.3,17.4,10.3,95,85,65,30.05,29.82,11,2,11,0.00
2013-2-5,30.1,27.0,25.3,26.8,23.8,18.4,96,88,64,29.95,29.82,14,2,16,0.01
2013-2-6,33.7,29.0,21.1,26.7,19.9,13.9,88,70,49,30.26,29.95,11,2,12,0.03
2013-2-7,46.4,34.4,21.6,30.9,23.6,14.5,82,66,47,30.22,29.83,14,4,14,0.01
2013-2-8,43.5,33.2,25.3,37.4,27.4,18.3,93,79,69,30.24,29.75,24,6,25,0.14
2013-2-9,35.8,27.3,22.2,19.0,16.0,13.6,76,63,46,30.38,30.24,13,2,16,0.00
2013-2-10,48.2,36.3,24.1,39.6,22.1,15.0,81,58,38,30.25,29.84,25,4,25,0.01
2013-2-11,51.6,44.0,36.2,45.1,34.3,21.9,92,70,45,29.95,29.73,35,9,35,0.01
2013-2-12,43.8,36.0,30.7,25.2,23.5,21.6,72,61,44,30.08,29.89,28,5,28,0.00
2013-2-13,33.8,30.6,29.0,24.0,23.2,22.4,81,74,67,29.89,29.84,5,0,5,0.00
2013-2-14,41.8,38.7,34.6,35.4,32.8,27.5,85,79,72,29.93,29.81,19,4,19,0.00
2013-2-15,34.7,30.7,25.7,29.5,25.4,20.7,90,81,70,30.07,29.92,16,2,16,0.03
2013-2-16,29.0,23.0,15.9,22.1,15.4,6.6,87,73,46,30.06,29.93,17,4,19,0.00
2013-2-17,21.1,16.3,12.3,10.0,7.2,4.3,81,67,52,30.20,30.00,16,4,16,0.00
2013-2-18,48.8,32.3,14.0,30.0,16.9,5.7,71,54,40,30.22,29.77,28,5,28,0.00
2013-2-19,48.9,31.1,19.1,38.0,25.2,12.0,93,79,46,30.00,29.64,32,9,34,0.23
2013-2-20,20.3,18.4,15.4,14.8,11.0,6.8,83,73,61,30.21,30.00,19,6,22,0.00
2013-2-21,26.0,21.7,19.1,15.8,13.6,10.2,83,71,61,30.30,30.17,16,4,16,0.00
2013-2-22,39.5,31.8,23.0,38.1,26.8,14.4,96,82,69,30.17,29.91,21,5,24,0.05
2013-2-23,40.5,35.0,29.4,30.9,27.3,22.8,87,74,53,29.95,29.86,12,2,16,0.00
2013-2-24,29.3,27.2,26.3,23.6,22.2,19.9,85,81,76,29.98,29.88,13,2,14,0.00
2013-8-4,59.3,58.8,58.0,52.5,52.4,52.1,82,79,78,30.09,30.08,0,0,2,0.01
2013-8-5,74.6,63.5,51.4,62.2,55.5,50.6,100,78,44,30.12,29.98,6,0,7,0.00
2013-8-6,79.8,69.5,58.6,62.7,58.6,54.8,95,71,45,30.00,29.93,11,1,11,0.00
2013-8-7,84.7,73.5,63.2,72.9,66.8,59.8,93,80,60,29.94,29.86,11,1,11,0.00
2013-8-8,82.2,74.5,70.8,74.5,71.8,70.2,99,92,71,29.95,29.89,7,0,8,0.10
2013-8-9,79.2,70.5,64.8,70.9,66.7,59.7,100,89,56,30.02,29.87,7,0,8,0.25
2013-8-10,82.2,71.7,62.6,67.7,64.2,61.0,100,80,50,30.09,30.01,4,0,9,0.00
2013-8-11,83.2,71.3,61.3,70.6,64.6,60.7,99,81,59,30.08,30.00,8,1,8,0.00
2013-8-12,83.2,72.0,60.9,69.8,64.4,60.1,100,79,53,30.05,29.87,11,0,11,0.00
2013-8-13,76.8,68.1,54.1,69.2,60.3,48.5,99,78,53,29.99,29.80,13,1,16,0.02
2013-8-14,67.1,57.6,48.5,54.6,50.2,46.9,96,78,54,30.14,29.99,10,0,10,0.00
2013-8-15,73.7,61.8,47.7,55.8,50.9,46.0,100,71,41,30.17,30.08,7,0,8,0.01
2013-8-16,75.3,63.6,51.0,56.3,52.3,48.3,96,69,41,30.15,30.09,12,1,12,0.00
2013-8-17,78.3,66.0,55.6,61.0,56.1,52.5,90,72,46,30.19,30.14,11,1,11,0.00
2013-8-18,71.3,64.3,57.0,64.4,60.4,54.7,96,87,76,30.18,30.10,7,0,7,0.00
2013-8-19,82.4,69.3,61.6,66.0,62.1,56.0,100,81,44,30.13,30.05,8,0,8,0.00
2013-8-20,83.0,70.6,59.3,66.2,62.3,58.4,100,78,46,30.17,30.09,4,0,5,0.00
2013-8-21,83.4,70.5,59.5,70.2,64.0,58.9,100,81,53,30.17,30.04,8,0,8,0.00
2013-8-22,83.2,72.2,63.2,72.5,66.3,61.8,97,83,63,30.09,29.99,12,1,12,0.03
2013-8-23,83.8,75.4,64.0,67.8,60.0,54.0,93,60,44,30.14,30.00,11,2,12,0.37
2013-8-24,81.8,68.5,56.5,60.2,55.1,51.2,89,65,36,30.26,30.14,10,1,11,0.00
2013-8-25,83.6,69.9,55.7,62.9,57.3,53.1,97,68,41,30.33,30.20,9,0,10,0.00
2013-8-26,85.9,73.6,62.1,68.1,62.1,56.2,81,68,47,30.24,30.03,12,1,12,0.00
2013-8-27,81.6,75.0,69.9,72.7,69.1,66.1,91,82,71,30.04,29.92,8,0,11,0.00
2013-8-28,82.8,75.7,70.4,72.9,71.0,68.2,96,86,71,29.95,29.86,13,1,13,0.09
2013-8-29,84.0,73.7,67.8,69.9,68.0,65.1,99,84,56,30.03,29.94,8,1,8,0.00
2013-8-30,88.0,74.8,63.4,71.5,67.0,63.1,100,79,50,29.99,29.83,11,0,12,0.01
2013-8-31,84.3,75.1,67.6,73.2,69.1,65.7,99,82,66,29.85,29.77,18,1,18,0.86
2013-9-1,83.0,74.6,67.3,70.5,68.6,67.0,100,83,60,29.82,29.75,10,1,11,0.00
2013-9-2,82.4,73.4,66.0,71.4,67.8,62.0,99,84,64,29.86,29.76,11,1,12,0.00
2013-9-3,66.8,60.8,53.6,62.0,54.9,50.1,97,82,60,30.03,29.86,10,1,10,0.01
2013-9-4,80.3,63.9,49.6,59.9,55.5,49.3,100,78,44,30.11,30.03,8,0,9,0.00
2013-9-5,77.6,64.9,55.4,63.3,55.0,44.1,95,73,35,30.19,30.07,12,1,12,0.00
2013-9-6,75.3,59.8,46.2,54.1,48.1,40.6,96,69,31,30.24,30.09,8,0,10,0.00
2013-9-7,81.8,65.9,49.5,63.6,55.0,47.0,96,70,45,30.09,29.93,9,0,9,0.00
2013-9-8,80.7,70.6,63.2,67.8,64.0,60.4,95,80,61,30.02,29.91,13,1,13,0.00
2013-9-9,85.7,71.9,58.7,69.7,63.7,56.7,94,77,53,30.05,29.96,12,1,12,0.00
2013-9-10,91.4,80.2,72.1,74.0,70.2,66.8,85,73,53,30.11,30.01,12,1,12,0.00
2013-9-11,86.3,76.9,72.0,72.5,70.0,64.8,92,80,56,30.13,29.98,10,1,16,0.00
2013-9-12,74.4,69.5,59.3,70.2,66.6,57.0,97,91,71,29.98,29.83,21,1,26,0.83
2013-9-13,63.1,56.5,49.5,57.5,50.6,46.0,97,81,60,30.05,29.86,17,2,17,0.00
2013-9-14,67.6,53.8,41.8,49.2,43.9,40.0,96,72,40,30.15,30.04,11,1,11,0.01
2013-9-15,70.4,57.1,43.6,57.9,49.4,42.3,96,78,47,30.14,30.01,8,0,8,0.03
2013-9-16,70.9,59.4,52.0,57.3,53.3,47.9,99,82,47,30.28,30.05,11,1,11,0.05
2013-9-17,70.9,55.9,44.8,53.8,48.8,43.7,98,80,45,30.33,30.18,9,1,9,0.01
2013-9-18,72.0,60.5,52.0,61.2,55.0,49.2,93,83,65,30.18,30.06,11,1,11,0.00
2013-9-19,68.1,65.3,62.9,66.1,63.6,61.0,98,94,87,30.09,29.98,8,0,8,0.00
2013-9-20,84.3,72.1,65.8,70.6,67.3,65.4,100,86,58,30.01,29.79,11,1,11,0.02
2013-9-21,70.3,64.2,54.1,66.8,59.9,51.0,100,87,53,29.82,29.68,21,1,21,1.25
2013-9-22,62.4,53.7,46.8,51.3,46.3,41.4,98,78,48,30.00,29.82,10,1,11,0.01
2013-9-23,60.2,50.4,41.3,49.3,43.7,40.2,99,80,55,30.13,30.00,11,1,12,0.00
2013-9-24,67.6,52.2,39.1,50.0,45.0,38.8,100,80,47,30.10,29.94,10,1,10,0.01
2013-9-25,72.3,57.7,45.7,54.3,49.4,44.6,99,77,43,29.95,29.86,12,1,12,0.01
2013-9-26,76.8,62.3,49.2,54.4,49.1,41.5,97,67,31,30.07,29.92,10,1,10,0.00
2013-9-27,73.9,60.3,47.1,54.8,50.1,45.2,94,71,46,30.17,30.07,11,1,12,0.00
2013-9-28,76.1,61.9,48.6,57.3,52.7,47.0,97,75,41,30.19,30.07,9,1,9,0.00
2013-9-29,73.3,62.5,53.5,60.5,56.9,53.0,99,83,60,30.07,29.97,7,1,7,0.00
2013-9-30,70.1,62.3,58.9,61.9,59.0,57.0,96,89,72,30.02,29.94,7,0,9,0.02
2013-10-1,77.6,66.1,57.3,62.6,58.9,55.4,99,80,47,30.07,29.98,12,1,12,0.01
2013-10-2,81.4,67.9,59.0,65.5,61.2,57.3,98,81,50,30.09,30.02,10,0,10,0.00
2013-10-3,79.4,69.6,64.5,68.2,64.9,62.2,97,86,56,30.06,29.99,12,1,12,0.03
2013-10-4,79.8,69.0,63.9,68.4,64.9,61.6,99,88,56,30.07,30.02,9,0,10,0.09
2013-10-5,78.1,70.7,66.4,70.4,66.9,63.6,99,88,72,30.05,29.94,7,0,8,0.07
2013-10-6,79.9,68.8,52.8,68.7,64.2,52.2,99,87,59,29.94,29.70,19,2,22,0.92
2013-10-7,60.9,51.7,44.6,52.3,45.7,40.1,100,82,48,30.12,29.75,14,2,14,0.48
2013-10-8,66.4,53.1,41.2,48.3,44.8,40.4,99,77,44,30.25,30.12,12,1,14,0.01
2013-10-9,69.1,56.9,46.4,45.7,43.1,39.0,89,64,35,30.24,30.16,10,1,11,0.00
2013-10-10,75.3,57.5,42.1,46.6,41.4,28.6,93,60,21,30.17,30.06,7,0,8,0.00
2013-10-11,74.6,60.0,44.9,54.6,46.3,38.8,93,64,29,30.09,30.01,11,1,13,0.00
2013-10-12,73.7,62.0,51.7,59.0,55.8,50.6,98,81,60,30.11,30.03,9,1,9,0.00
2013-10-13,69.1,62.2,58.3,59.5,57.3,50.1,96,85,70,30.25,30.11,12,1,12,0.00
2013-10-14,69.3,58.6,51.3,50.8,48.5,46.2,92,71,49,30.30,30.18,14,2,14,0.00
2013-10-15,67.4,57.5,47.0,59.7,53.3,44.6,95,86,74,30.19,29.94,8,1,8,0.01
2013-10-16,64.2,61.4,52.5,62.0,59.1,46.6,97,92,77,29.94,29.84,13,1,16,0.14
2013-10-17,52.6,47.7,40.6,49.7,44.9,39.5,98,90,79,29.92,29.78,12,1,12,0.19
2013-10-18,63.2,51.0,41.6,45.9,42.1,39.6,96,74,43,30.00,29.91,17,2,17,0.01
2013-10-19,49.9,45.4,39.6,46.7,42.0,37.8,95,88,76,29.93,29.75,10,1,12,0.15
2013-10-20,59.6,47.2,36.9,41.3,37.9,34.8,95,72,47,29.98,29.93,18,2,18,0.01
2013-10-21,64.8,53.3,43.3,47.9,38.5,34.4,85,60,33,29.98,29.84,20,2,20,0.00
2013-10-22,52.3,43.0,33.2,48.3,32.0,22.9,94,68,34,29.98,29.85,12,1,13,0.16
2013-10-23,44.9,38.2,34.4,38.0,34.8,31.6,96,88,61,29.94,29.74,14,1,14,0.36
2013-10-24,45.7,37.4,31.8,33.1,29.7,22.9,93,75,42,30.14,29.94,18,2,18,0.01
2013-10-25,47.9,37.3,29.8,33.2,29.3,25.9,95,74,52,30.31,30.14,12,1,14,0.00
2013-10-26,46.0,39.6,31.6,35.2,27.8,24.9,80,64,45,30.19,29.87,27,4,27,0.00
2013-10-27,54.8,42.7,32.4,35.6,32.6,28.2,94,70,37,30.06,29.97,11,1,11,0.00
2013-10-28,60.9,45.5,31.5,38.2,33.1,28.2,95,66,32,30.26,30.05,13,0,13,0.00
2013-10-29,59.3,47.3,36.6,40.8,37.4,33.5,96,71,40,30.32,30.17,8,0,9,0.00
2013-10-30,63.4,54.9,44.5,57.5,47.2,36.0,97,76,61,30.18,29.98,10,1,10,0.00
2013-10-31,64.5,60.6,57.6,59.3,57.2,54.7,98,89,71,30.01,29.32,26,5,26,0.66
2013-11-1,61.5,54.2,49.1,59.9,46.5,41.3,95,76,54,29.69,29.31,26,4,36,0.20
2013-11-2,51.4,46.4,41.5,45.1,40.4,36.1,94,80,58,30.00,29.68,15,2,17,0.03
2013-11-3,51.4,42.9,37.2,40.3,34.2,28.5,96,73,43,30.36,30.00,11,2,13,0.00
2013-11-4,52.6,41.8,31.2,33.7,28.4,21.0,81,61,38,30.40,30.30,16,4,16,0.00
2013-11-5,59.0,51.7,46.2,39.9,36.0,33.0,64,55,46,30.39,30.22,11,1,11,0.00
2013-11-6,67.6,56.8,48.0,58.1,43.8,30.5,96,64,43,30.22,29.90,22,4,22,0.35
2013-11-7,52.0,41.6,36.8,50.0,33.4,24.1,95,74,47,30.12,29.92,21,4,21,0.13
2013-11-8,44.6,36.5,31.6,33.2,29.1,24.3,95,76,47,30.27,30.09,16,2,16,0.02
2013-11-9,58.0,45.9,33.8,35.2,29.0,25.4,77,54,33,30.19,29.92,24,5,24,0.00
2013-11-10,49.5,42.5,35.8,37.1,30.1,24.5,75,62,48,30.26,29.97,25,5,32,0.00
2013-11-11,48.2,39.7,29.8,37.8,30.3,26.3,96,71,44,30.24,30.00,16,3,18,0.04
2013-11-12,32.1,27.6,23.3,31.1,23.3,19.5,97,84,68,30.47,30.14,14,3,16,0.10
2013-11-13,32.4,27.8,22.1,21.0,18.4,16.5,85,69,53,30.48,30.29,21,3,21,0.00
2013-11-14,50.2,38.8,30.1,22.8,18.7,14.6,64,46,26,30.29,30.10,17,4,17,0.00
2013-11-15,52.9,44.2,36.3,36.7,23.8,17.0,73,45,31,30.13,30.06,17,2,18,0.00
2013-11-16,59.2,51.5,43.5,50.7,44.9,36.7,88,78,71,30.13,29.92,19,3,19,0.00
2013-11-17,61.5,57.3,51.0,57.5,52.5,39.8,94,85,58,29.92,29.48,34,8,34,0.69
2013-11-18,51.0,43.9,35.0,39.7,33.0,25.5,82,66,46,30.08,29.66,28,8,28,0.00
2013-11-19,40.5,34.7,29.7,27.0,23.3,21.7,76,63,49,30.31,30.08,16,2,16,0.00
2013-11-20,46.2,36.3,28.2,24.9,22.4,20.5,74,58,39,30.33,30.22,17,5,19,0.00
2013-11-21,53.6,45.2,35.6,42.6,33.6,21.5,89,65,50,30.31,30.16,10,2,10,0.13
2013-11-22,51.7,46.2,35.2,51.4,43.7,27.8,99,91,74,30.27,30.08,19,3,20,0.31
2013-11-23,35.2,30.1,26.9,27.8,25.1,20.5,91,82,60,30.26,30.20,16,2,17,0.00
2013-11-24,23.6,18.7,15.1,9.5,7.7,5.0,78,62,46,30.47,30.42,14,1,16,0.00
2013-11-25,34.9,25.1,14.8,27.8,13.5,8.4,91,64,36,30.43,30.13,27,3,27,0.00
2013-11-26,32.5,30.7,29.0,31.0,29.2,27.5,96,94,90,30.14,29.80,10,1,10,0.03
2013-11-27,29.4,25.6,20.8,28.0,18.4,10.4,96,75,53,30.14,29.78,16,4,18,0.02
2013-11-28,28.7,24.8,21.4,20.5,18.0,14.8,86,75,63,30.34,30.14,13,2,14,0.00
2013-11-29,35.9,28.8,22.7,20.5,18.5,16.7,79,66,49,30.54,30.34,10,2,11,0.10
2013-11-30,42.2,32.6,23.9,27.8,23.0,18.8,82,68,53,30.48,30.12,12,2,12,0.02
2013-12-1,43.5,38.9,35.3,31.9,28.8,26.0,72,67,61,30.12,29.91,10,1,11,0.00
2013-12-2,44.1,38.0,34.0,34.9,32.4,30.0,93,80,66,29.91,29.78,8,1,9,0.04
2013-12-3,54.1,43.3,35.0,42.4,38.3,33.9,96,83,63,29.85,29.79,11,2,11,0.03
2013-12-4,61.2,52.8,43.9,51.5,45.6,40.4,89,77,67,29.90,29.76,16,3,19,0.00
2013-12-5,59.9,50.1,32.9,58.2,45.4,30.8,97,84,70,30.08,29.76,17,4,18,0.28
2013-12-6,32.9,29.1,25.1,30.8,27.2,23.6,96,93,87,30.27,30.03,13,2,13,0.04
2013-12-7,25.7,21.7,14.8,23.6,15.0,9.8,94,76,55,30.50,30.26,13,2,13,0.12
2013-12-8,29.3,22.5,14.9,28.6,18.0,9.9,97,83,74,30.48,29.94,18,6,18,0.00
2013-12-9,33.5,30.1,24.7,33.0,26.1,18.2,98,85,73,30.12,29.90,18,5,22,0.00
2013-12-10,24.7,20.4,18.1,19.2,16.7,7.5,92,86,60,30.09,30.03,14,4,16,0.00
2013-12-11,30.0,23.3,14.6,19.5,14.9,7.7,87,70,55,30.37,30.07,17,5,17,0.00
2013-12-12,19.2,14.5,9.0,7.5,4.0,-0.0,78,64,46,30.40,30.21,19,4,19,0.00
2013-12-13,32.4,24.2,16.1,18.9,12.4,5.2,73,60,47,30.22,30.13,11,2,11,0.01
2013-12-14,36.6,32.0,27.5,36.6,30.9,18.1,100,96,65,30.17,29.64,13,4,14,0.46
2013-12-15,34.0,24.0,20.2,34.0,19.4,11.1,100,83,64,30.02,29.68,26,8,28,0.00
2013-12-16,25.3,21.2,18.1,23.8,16.2,12.6,94,81,69,30.10,29.94,12,2,17,0.00
2013-12-17,32.1,26.7,23.9,30.8,23.0,18.6,96,86,73,30.05,29.89,22,4,22,0.00
2013-12-18,30.0,26.1,24.2,22.2,18.5,14.4,86,73,60,30.15,30.00,16,5,17,0.01
2013-12-19,48.0,41.4,29.5,35.8,26.6,16.6,65,55,48,30.03,29.93,19,4,20,0.08
2013-12-20,54.1,49.3,45.7,51.8,41.1,28.6,98,75,49,29.93,29.82,18,4,18,0.03
2013-12-21,66.3,58.1,54.2,61.2,56.3,51.2,98,94,76,29.82,29.48,27,5,31,1.13
2013-12-22,66.6,54.9,42.8,59.9,49.1,39.0,96,81,63,29.95,29.47,28,6,31,0.47
2013-12-23,42.5,32.7,26.4,39.0,26.0,18.0,94,76,65,30.26,29.95,18,5,18,0.03
2013-12-24,26.3,16.2,10.2,21.0,10.0,3.5,91,76,68,30.48,30.22,16,4,18,0.00
2013-12-25,29.1,21.0,9.7,24.3,12.3,5.9,87,71,45,30.43,30.11,18,2,18,0.00
2013-12-26,35.9,31.0,27.9,24.9,19.7,12.6,84,64,40,30.28,30.07,22,6,29,0.00
2013-12-27,43.6,36.1,29.0,28.5,24.4,20.1,70,62,54,30.31,30.21,17,4,18,0.00
2013-12-30,28.5,25.1,23.6,26.2,17.3,13.3,91,72,60,30.16,29.95,17,3,17,0.00
2013-12-31,24.8,22.5,19.1,18.3,15.1,11.5,86,73,62,30.24,30.03,19,5,20,0.00
2014-1-1,37.8,28.3,21.8,26.5,21.5,16.6,86,76,59,30.23,30.00,12,2,12,0.00
2014-1-2,26.0,20.6,10.4,22.7,17.4,6.1,93,87,82,30.05,29.72,24,5,25,0.00